Time;durP1;ratioP1;P1;durP2;ratioP2;P2;SDS_P1;SDS_P2;PMS_P1;PMS_P2;Temp;Humidity;BMP_temperature;BMP_pressure;BME280_temperature;BME280_humidity;BME280_pressure;Samples;Min_cycle;Max_cycle;Signal;HPM_P1;HPM_P2
2022/08/30 00:01:29;;;;;;;7.67;4.13;;;16.80;1.00;;;;;;5032550;28;20272;-57
2022/08/30 00:03:58;;;;;;;12.50;4.33;;;16.80;99.90;;;;;;5032358;28;20276;-56
2022/08/30 00:06:27;;;;;;;7.03;4.00;;;16.80;1.00;;;;;;5032061;28;20562;-57
2022/08/30 00:08:54;;;;;;;10.90;4.37;;;16.80;1.00;;;;;;5031879;28;20210;-55
2022/08/30 00:11:23;;;;;;;7.37;4.00;;;16.80;1.00;;;;;;5031970;28;20210;-58
2022/08/30 00:13:52;;;;;;;10.53;4.63;;;16.80;1.00;;;;;;5032150;28;20276;-57
2022/08/30 00:16:20;;;;;;;7.10;4.17;;;16.80;99.90;;;;;;5031862;28;20211;-56
2022/08/30 00:18:47;;;;;;;7.23;4.17;;;16.80;99.90;;;;;;5031986;28;20210;-57
2022/08/30 00:21:15;;;;;;;9.37;4.03;;;16.90;1.00;;;;;;5031759;28;20214;-55
2022/08/30 00:23:42;;;;;;;9.20;4.00;;;16.90;1.00;;;;;;5032019;28;20644;-59
2022/08/30 00:26:09;;;;;;;4.97;4.00;;;16.90;1.00;;;;;;5031863;28;20211;-58
2022/08/30 00:28:36;;;;;;;7.00;4.37;;;16.90;1.00;;;;;;5031931;28;20214;-56
2022/08/30 00:31:03;;;;;;;7.33;4.63;;;16.90;99.90;;;;;;5031831;28;20206;-58
2022/08/30 00:33:30;;;;;;;7.87;3.90;;;16.90;99.90;;;;;;5031727;28;20226;-56
2022/08/30 00:35:57;;;;;;;7.50;4.50;;;16.90;1.00;;;;;;5031440;28;20256;-57
2022/08/30 00:38:25;;;;;;;7.27;4.00;;;16.90;12.10;;;;;;5031941;28;20268;-57
2022/08/30 00:40:52;;;;;;;7.93;4.07;;;16.80;99.90;;;;;;5031839;28;20211;-57
2022/08/30 00:43:23;;;;;;;7.67;4.67;;;16.80;99.90;;;;;;5031746;28;20261;-60
2022/08/30 00:45:50;;;;;;;9.03;4.20;;;16.80;99.90;;;;;;5031616;28;20731;-57
2022/08/30 00:48:17;;;;;;;9.60;4.20;;;16.80;99.90;;;;;;5031503;28;20260;-57
2022/08/30 00:50:47;;;;;;;9.20;4.20;;;16.80;99.90;;;;;;5031689;28;20214;-57
2022/08/30 00:53:19;;;;;;;8.60;4.10;;;16.80;1.00;;;;;;5031771;28;20226;-58
2022/08/30 00:55:49;;;;;;;9.17;4.73;;;16.90;1.00;;;;;;5031655;28;20260;-57
2022/08/30 00:58:20;;;;;;;5.60;4.40;;;16.80;1.00;;;;;;5031483;28;20213;-57
2022/08/30 01:00:48;;;;;;;15.40;4.57;;;16.80;99.90;;;;;;5031640;28;20213;-55
2022/08/30 01:03:15;;;;;;;8.40;4.33;;;16.70;99.90;;;;;;5031685;28;20226;-56
2022/08/30 01:05:42;;;;;;;6.13;4.33;;;16.70;99.90;;;;;;5031681;28;20272;-57
2022/08/30 01:08:09;;;;;;;8.57;4.57;;;16.70;1.00;;;;;;5031280;28;20210;-56
2022/08/30 01:10:37;;;;;;;6.00;4.07;;;16.70;1.00;;;;;;5031650;28;20206;-57
2022/08/30 01:13:05;;;;;;;8.40;4.63;;;16.70;1.00;;;;;;5031211;28;20724;-59
2022/08/30 01:15:34;;;;;;;7.37;4.23;;;16.60;1.00;;;;;;5031347;28;20230;-57
2022/08/30 01:18:02;;;;;;;6.90;4.17;;;16.60;49.90;;;;;;5031377;28;20214;-56
2022/08/30 01:20:35;;;;;;;8.37;4.43;;;16.70;98.50;;;;;;5031450;28;20260;-57
2022/08/30 01:23:12;;;;;;;6.33;4.40;;;16.70;99.90;;;;;;5033729;28;20269;-58
2022/08/30 01:25:41;;;;;;;7.63;3.83;;;16.70;99.90;;;;;;5035220;28;20580;-53
2022/08/30 01:28:10;;;;;;;8.13;4.37;;;16.70;99.90;;;;;;5034721;28;20289;-59
2022/08/30 01:30:38;;;;;;;7.27;4.20;;;16.70;99.90;;;;;;5035245;28;20206;-56
2022/08/30 01:33:06;;;;;;;6.80;4.37;;;16.70;99.90;;;;;;5035010;28;20238;-54
2022/08/30 01:35:38;;;;;;;5.37;3.87;;;16.70;99.90;;;;;;5034915;28;20288;-57
2022/08/30 01:38:05;;;;;;;5.40;4.30;;;16.70;99.90;;;;;;5034628;28;20202;-57
2022/08/30 01:40:33;;;;;;;7.20;4.10;;;16.70;1.00;;;;;;5034870;28;20228;-57
2022/08/30 01:42:59;;;;;;;6.80;4.07;;;16.60;1.00;;;;;;5034801;28;20244;-55
2022/08/30 01:45:26;;;;;;;7.33;3.90;;;16.60;1.00;;;;;;5034726;28;20264;-58
2022/08/30 01:47:52;;;;;;;8.47;4.10;;;16.60;1.00;;;;;;5034619;28;20217;-59
2022/08/30 01:50:19;;;;;;;5.47;3.60;;;16.60;1.00;;;;;;5034858;28;20210;-56
2022/08/30 01:52:46;;;;;;;4.80;3.73;;;16.50;1.00;;;;;;5034418;28;20206;-59
2022/08/30 01:55:12;;;;;;;9.53;4.23;;;16.60;1.00;;;;;;5034727;28;20688;-58
2022/08/30 01:57:40;;;;;;;8.07;4.03;;;16.50;1.00;;;;;;5034527;28;20202;-59
2022/08/30 02:00:09;;;;;;;5.37;3.80;;;16.60;1.00;;;;;;5034251;28;20669;-53
2022/08/30 02:02:36;;;;;;;6.90;3.80;;;16.50;26.00;;;;;;5034594;28;20210;-59
2022/08/30 02:05:04;;;;;;;6.40;4.13;;;16.60;20.20;;;;;;5034283;28;20728;-59
2022/08/30 02:07:32;;;;;;;6.70;3.70;;;16.60;39.10;;;;;;5034008;28;20226;-54
2022/08/30 02:09:58;;;;;;;7.33;3.70;;;16.60;54.00;;;;;;5034307;28;20211;-57
2022/08/30 02:12:25;;;;;;;6.43;3.83;;;16.60;51.20;;;;;;5034525;28;20256;-56
2022/08/30 02:14:53;;;;;;;6.13;3.73;;;16.70;48.20;;;;;;5034081;28;20230;-57
2022/08/30 02:17:20;;;;;;;7.57;3.80;;;16.60;22.10;;;;;;5034200;28;20213;-57
2022/08/30 02:19:46;;;;;;;5.13;3.87;;;16.60;16.90;;;;;;5034054;28;20210;-57
2022/08/30 02:22:15;;;;;;;6.70;3.60;;;16.60;47.00;;;;;;5034053;28;20539;-57
2022/08/30 02:24:41;;;;;;;4.57;3.70;;;16.50;65.80;;;;;;5034173;28;20230;-58
2022/08/30 02:27:08;;;;;;;7.47;3.60;;;16.50;99.90;;;;;;5034056;28;20205;-57
2022/08/30 02:29:35;;;;;;;4.07;3.10;;;16.50;99.90;;;;;;5033981;28;20206;-57
2022/08/30 02:32:04;;;;;;;4.13;3.70;;;16.50;99.90;;;;;;5033792;28;20731;-59
2022/08/30 02:34:30;;;;;;;5.23;3.80;;;16.50;99.90;;;;;;5033096;28;20234;-57
2022/08/30 02:36:57;;;;;;;6.10;3.60;;;16.50;99.90;;;;;;5033604;28;20252;-56
2022/08/30 02:39:24;;;;;;;5.70;3.97;;;16.50;99.90;;;;;;5033991;28;20211;-57
2022/08/30 02:41:51;;;;;;;4.77;3.63;;;16.40;99.90;;;;;;5033787;28;20242;-57
2022/08/30 02:44:17;;;;;;;7.00;3.77;;;16.40;99.90;;;;;;5033585;28;20226;-57
2022/08/30 02:46:45;;;;;;;6.37;3.47;;;16.30;99.90;;;;;;5033400;28;20210;-59
2022/08/30 02:49:13;;;;;;;5.73;3.80;;;16.40;99.90;;;;;;5033421;28;20208;-57
2022/08/30 02:51:40;;;;;;;7.77;3.60;;;16.30;99.90;;;;;;5033504;28;20279;-57
2022/08/30 02:54:06;;;;;;;6.43;3.70;;;16.30;99.90;;;;;;5033118;28;20230;-57
2022/08/30 02:56:33;;;;;;;5.80;3.90;;;16.30;99.90;;;;;;5033304;28;20284;-56
2022/08/30 02:59:00;;;;;;;4.17;3.70;;;16.30;99.90;;;;;;5033368;28;20241;-60
2022/08/30 03:01:26;;;;;;;7.70;3.63;;;16.20;99.90;;;;;;5033307;28;20214;-57
2022/08/30 03:03:53;;;;;;;5.50;3.50;;;16.20;99.90;;;;;;5033025;28;20723;-55
2022/08/30 03:06:21;;;;;;;4.97;3.60;;;16.20;99.90;;;;;;5033161;28;20207;-59
2022/08/30 03:08:48;;;;;;;4.57;3.80;;;16.20;99.90;;;;;;5033340;28;20206;-57
2022/08/30 03:11:15;;;;;;;7.20;3.70;;;16.20;99.90;;;;;;5033185;28;20229;-57
2022/08/30 03:13:41;;;;;;;6.20;3.60;;;16.20;99.90;;;;;;5033117;28;20284;-57
2022/08/30 03:16:08;;;;;;;5.70;4.23;;;16.20;99.90;;;;;;5032512;28;20784;-58
2022/08/30 03:18:35;;;;;;;7.23;3.90;;;16.20;99.90;;;;;;5033184;28;20218;-57
2022/08/30 03:21:03;;;;;;;7.03;4.50;;;16.20;99.90;;;;;;5033197;28;20212;-52
2022/08/30 03:23:31;;;;;;;3.77;3.43;;;16.10;99.90;;;;;;5033313;28;20222;-53
2022/08/30 03:25:57;;;;;;;4.90;3.70;;;16.00;99.90;;;;;;5032652;28;20669;-57
2022/08/30 03:28:24;;;;;;;7.10;4.00;;;16.00;99.90;;;;;;5032798;28;20260;-57
2022/08/30 03:30:51;;;;;;;6.07;3.70;;;16.00;99.90;;;;;;5032660;28;20206;-59
2022/08/30 03:33:17;;;;;;;6.20;3.70;;;15.90;99.90;;;;;;5032515;28;20697;-59
2022/08/30 03:35:44;;;;;;;4.50;4.00;;;15.90;99.90;;;;;;5032640;28;20234;-56
2022/08/30 03:38:10;;;;;;;8.40;5.73;;;15.80;99.90;;;;;;5032379;28;20696;-55
2022/08/30 03:40:39;;;;;;;6.10;4.20;;;15.80;99.90;;;;;;5032684;28;20631;-56
2022/08/30 03:43:05;;;;;;;10.30;4.50;;;15.70;99.90;;;;;;5032340;28;20206;-57
2022/08/30 03:45:32;;;;;;;4.50;3.97;;;15.70;99.90;;;;;;5031663;28;20264;-55
2022/08/30 03:48:01;;;;;;;7.43;4.80;;;15.70;1.00;;;;;;5032415;28;20210;-54
2022/08/30 03:50:27;;;;;;;5.60;4.37;;;15.60;1.00;;;;;;5032475;28;20623;-53
2022/08/30 03:52:54;;;;;;;5.60;4.53;;;15.60;1.00;;;;;;5032281;28;20221;-54
2022/08/30 03:55:21;;;;;;;11.90;7.27;;;15.60;1.00;;;;;;5032269;28;20222;-55
2022/08/30 03:57:49;;;;;;;14.57;9.63;;;15.60;1.00;;;;;;5031821;28;20583;-56
2022/08/30 04:00:17;;;;;;;8.57;5.10;;;15.60;1.00;;;;;;5032210;28;20624;-55
2022/08/30 04:02:43;;;;;;;5.73;4.20;;;15.50;1.00;;;;;;5031932;28;20735;-58
2022/08/30 04:05:11;;;;;;;6.23;5.27;;;15.50;1.00;;;;;;5032217;28;20226;-55
2022/08/30 04:07:38;;;;;;;6.67;4.90;;;15.50;1.00;;;;;;5031938;28;20206;-53
2022/08/30 04:10:06;;;;;;;6.90;5.33;;;15.50;1.00;;;;;;5032090;28;20206;-54
2022/08/30 04:12:33;;;;;;;5.97;5.07;;;15.40;1.00;;;;;;5032118;28;20252;-56
2022/08/30 04:15:01;;;;;;;5.87;5.07;;;15.40;1.00;;;;;;5031785;28;20648;-57
2022/08/30 04:17:28;;;;;;;6.13;4.93;;;15.40;1.00;;;;;;5031871;28;20263;-56
2022/08/30 04:19:54;;;;;;;6.77;5.20;;;15.40;1.00;;;;;;5031851;28;20224;-56
2022/08/30 04:22:21;;;;;;;7.17;5.17;;;15.30;1.00;;;;;;5032036;28;20206;-57
2022/08/30 04:24:48;;;;;;;8.07;5.43;;;15.30;1.00;;;;;;5031865;28;20232;-57
2022/08/30 04:27:15;;;;;;;7.20;5.10;;;15.30;1.00;;;;;;5032020;28;20616;-59
2022/08/30 04:29:42;;;;;;;8.47;6.00;;;15.20;1.00;;;;;;5032517;28;20252;-59
2022/08/30 04:32:10;;;;;;;9.27;5.60;;;15.30;1.00;;;;;;5032252;28;20213;-55
2022/08/30 04:34:37;;;;;;;9.50;4.67;;;15.20;1.00;;;;;;5031498;28;20218;-57
2022/08/30 04:37:04;;;;;;;7.30;5.00;;;15.20;1.00;;;;;;5031661;28;20303;-58
2022/08/30 04:39:31;;;;;;;8.73;5.43;;;15.20;1.00;;;;;;5031590;28;20209;-57
2022/08/30 04:41:57;;;;;;;8.60;5.70;;;15.10;1.00;;;;;;5032047;28;20272;-57
2022/08/30 04:44:26;;;;;;;9.03;5.80;;;15.10;1.00;;;;;;5031577;28;20311;-56
2022/08/30 04:46:53;;;;;;;8.67;5.40;;;15.00;1.00;;;;;;5031666;28;20214;-59
2022/08/30 04:49:21;;;;;;;8.00;5.47;;;15.00;1.00;;;;;;5031555;28;20285;-60
2022/08/30 04:51:48;;;;;;;8.73;6.43;;;14.90;1.00;;;;;;5031647;28;20232;-57
2022/08/30 04:54:14;;;;;;;8.90;6.10;;;15.00;1.00;;;;;;5031435;28;20230;-61
2022/08/30 04:56:42;;;;;;;7.80;5.83;;;14.90;1.00;;;;;;5033710;28;20232;-58
2022/08/30 04:59:09;;;;;;;6.83;5.77;;;14.90;1.00;;;;;;5035643;28;20213;-59
2022/08/30 05:01:36;;;;;;;8.13;5.83;;;14.90;1.00;;;;;;5035641;28;20627;-59
2022/08/30 05:04:05;;;;;;;9.60;6.50;;;14.90;1.00;;;;;;5035451;28;20272;-57
2022/08/30 05:06:33;;;;;;;6.77;5.53;;;14.90;1.00;;;;;;5035147;28;20241;-60
2022/08/30 05:09:00;;;;;;;6.73;5.70;;;14.90;1.00;;;;;;5035338;28;20272;-59
2022/08/30 05:11:28;;;;;;;8.53;5.67;;;14.90;1.00;;;;;;5035533;28;20226;-60
2022/08/30 05:13:55;;;;;;;6.97;5.67;;;14.90;1.00;;;;;;5035131;28;20273;-58
2022/08/30 05:16:22;;;;;;;11.07;5.97;;;14.90;1.00;;;;;;5034973;28;20222;-60
2022/08/30 05:18:50;;;;;;;8.17;6.23;;;14.90;1.00;;;;;;5035346;28;20229;-58
2022/08/30 05:21:19;;;;;;;9.57;6.27;;;15.00;1.00;;;;;;5035136;28;20729;-60
2022/08/30 05:23:47;;;;;;;10.13;6.37;;;15.00;1.00;;;;;;5035155;28;20230;-59
2022/08/30 05:26:17;;;;;;;7.73;6.27;;;15.00;1.00;;;;;;5034927;28;20259;-60
2022/08/30 05:28:45;;;;;;;8.17;5.77;;;15.10;1.00;;;;;;5034861;28;20237;-61
2022/08/30 05:31:18;;;;;;;7.27;6.07;;;15.10;1.00;;;;;;5034912;28;20269;-60
2022/08/30 05:33:45;;;;;;;12.77;6.60;;;15.20;1.00;;;;;;5034999;28;20284;-60
2022/08/30 05:36:13;;;;;;;7.63;6.50;;;15.20;1.00;;;;;;5034766;28;20795;-60
2022/08/30 05:38:40;;;;;;;9.20;6.70;;;15.30;1.00;;;;;;5034964;28;20264;-61
2022/08/30 05:41:09;;;;;;;8.83;5.93;;;15.40;1.00;;;;;;5034831;28;20673;-60
2022/08/30 05:43:36;;;;;;;10.27;5.43;;;15.40;1.00;;;;;;5034659;28;20230;-60
2022/08/30 05:46:06;;;;;;;7.53;5.57;;;15.50;1.00;;;;;;5034633;28;20249;-60
2022/08/30 05:48:33;;;;;;;9.70;6.07;;;15.50;1.00;;;;;;5034721;28;20206;-60
2022/08/30 05:51:09;;;;;;;8.90;5.80;;;15.50;1.00;;;;;;5034684;28;20256;-60
2022/08/30 05:53:36;;;;;;;10.03;5.77;;;15.50;1.00;;;;;;5034737;28;20284;-60
2022/08/30 05:56:03;;;;;;;12.10;5.57;;;15.60;1.00;;;;;;5034289;28;20299;-60
2022/08/30 05:58:32;;;;;;;8.07;5.87;;;15.60;1.00;;;;;;5034498;28;20567;-60
2022/08/30 06:01:00;;;;;;;8.63;6.03;;;15.60;1.00;;;;;;5034389;28;20210;-60
2022/08/30 06:03:27;;;;;;;6.90;5.67;;;15.60;1.00;;;;;;5034457;28;20277;-61
2022/08/30 06:05:54;;;;;;;6.37;5.60;;;15.60;1.00;;;;;;5034233;28;20195;-60
2022/08/30 06:08:20;;;;;;;7.57;5.97;;;15.70;1.00;;;;;;5033533;28;20630;-59
2022/08/30 06:10:47;;;;;;;7.67;5.53;;;15.80;1.00;;;;;;5034174;28;20218;-59
2022/08/30 06:13:14;;;;;;;7.43;5.53;;;15.80;1.00;;;;;;5034075;28;20230;-58
2022/08/30 06:15:43;;;;;;;6.57;5.87;;;15.90;1.00;;;;;;5034212;28;20230;-61
2022/08/30 06:18:10;;;;;;;8.43;6.07;;;15.90;1.00;;;;;;5034192;28;20237;-60
2022/08/30 06:20:40;;;;;;;10.40;5.83;;;16.00;1.00;;;;;;5034242;28;20210;-60
2022/08/30 06:23:06;;;;;;;7.03;5.63;;;16.00;1.00;;;;;;5033962;28;20256;-60
2022/08/30 06:25:35;;;;;;;8.93;6.53;;;16.00;1.00;;;;;;5034118;28;20206;-60
2022/08/30 06:28:03;;;;;;;10.03;6.07;;;16.00;1.00;;;;;;5033692;28;20559;-58
2022/08/30 06:30:30;;;;;;;12.73;6.33;;;16.00;1.00;;;;;;5034035;28;20237;-60
2022/08/30 06:32:58;;;;;;;8.13;6.00;;;15.90;1.00;;;;;;5033979;28;20684;-61
2022/08/30 06:35:25;;;;;;;8.53;5.97;;;16.00;1.00;;;;;;5033841;28;20720;-60
2022/08/30 06:37:52;;;;;;;8.83;6.60;;;15.90;1.00;;;;;;5033726;28;20206;-60
2022/08/30 06:40:20;;;;;;;9.50;6.43;;;16.00;1.00;;;;;;5033841;28;20214;-60
2022/08/30 06:42:47;;;;;;;11.50;8.37;;;16.10;1.00;;;;;;5033524;28;20272;-61
2022/08/30 06:45:15;;;;;;;10.53;7.53;;;16.10;1.00;;;;;;5033636;28;20214;-58
2022/08/30 06:47:42;;;;;;;12.17;8.30;;;16.20;1.00;;;;;;5033429;28;20272;-60
2022/08/30 06:50:12;;;;;;;10.37;6.33;;;16.30;1.00;;;;;;5033694;28;20204;-60
2022/08/30 06:52:38;;;;;;;8.20;7.10;;;16.40;1.00;;;;;;5033422;28;20233;-60
2022/08/30 06:55:06;;;;;;;9.00;7.00;;;16.30;1.00;;;;;;5033240;28;20670;-61
2022/08/30 06:57:33;;;;;;;12.83;7.70;;;16.40;1.00;;;;;;5033294;28;20202;-60
2022/08/30 07:00:01;;;;;;;8.07;6.97;;;16.40;99.90;;;;;;5033553;28;20210;-60
2022/08/30 07:02:28;;;;;;;10.43;6.87;;;16.40;99.90;;;;;;5033173;28;20252;-60
2022/08/30 07:04:54;;;;;;;8.93;7.03;;;16.50;99.90;;;;;;5033296;28;20268;-60
2022/08/30 07:07:22;;;;;;;7.63;6.50;;;16.50;99.90;;;;;;5033014;28;20203;-60
2022/08/30 07:09:49;;;;;;;9.10;6.90;;;16.50;99.90;;;;;;5032793;28;20245;-60
2022/08/30 07:12:16;;;;;;;8.47;6.73;;;16.60;1.00;;;;;;5033224;28;20271;-61
2022/08/30 07:14:43;;;;;;;11.00;7.87;;;16.70;99.90;;;;;;5033110;28;20313;-60
2022/08/30 07:19:50;;;;;;;14.00;8.60;;;16.90;99.90;;;;;;5032849;28;20288;-60
2022/08/30 07:22:17;;;;;;;10.60;7.23;;;17.00;99.90;;;;;;5032598;28;20272;-59
2022/08/30 07:24:45;;;;;;;9.93;6.93;;;17.10;99.90;;;;;;5033112;28;20667;-60
2022/08/30 07:27:13;;;;;;;10.73;7.50;;;17.20;99.90;;;;;;5032500;28;20202;-59
2022/08/30 07:29:39;;;;;;;9.60;7.13;;;17.20;99.90;;;;;;5032768;28;20202;-59
2022/08/30 07:32:06;;;;;;;11.30;7.33;;;17.30;99.90;;;;;;5032812;28;20209;-61
2022/08/30 07:34:33;;;;;;;8.57;6.80;;;17.30;99.90;;;;;;5032577;28;20284;-61
2022/08/30 07:37:00;;;;;;;9.23;7.70;;;17.40;99.90;;;;;;5032424;28;20292;-61
2022/08/30 07:39:26;;;;;;;10.27;7.60;;;17.50;99.90;;;;;;5032612;28;20689;-62
2022/08/30 07:41:54;;;;;;;8.77;6.80;;;17.60;5.60;;;;;;5032333;28;20695;-61
2022/08/30 07:44:21;;;;;;;8.43;6.37;;;17.60;1.00;;;;;;5032505;28;20276;-61
2022/08/30 07:46:47;;;;;;;8.37;7.20;;;17.70;1.00;;;;;;5032273;28;20623;-61
2022/08/30 07:49:14;;;;;;;9.07;6.37;;;17.80;99.90;;;;;;5032532;28;20249;-58
2022/08/30 07:51:41;;;;;;;9.37;6.90;;;17.80;1.00;;;;;;5032669;28;20259;-61
2022/08/30 07:54:08;;;;;;;12.30;6.93;;;17.80;1.00;;;;;;5032215;28;20234;-59
2022/08/30 07:56:35;;;;;;;12.27;5.87;;;17.80;1.00;;;;;;5032285;28;20226;-61
2022/08/30 07:59:03;;;;;;;13.13;9.13;;;17.90;1.00;;;;;;5032191;28;20669;-61
2022/08/30 08:01:30;;;;;;;7.23;6.07;;;18.00;99.90;;;;;;5032172;28;20740;-61
2022/08/30 08:03:57;;;;;;;11.03;6.23;;;18.10;86.50;;;;;;5032173;28;20230;-58
2022/08/30 08:06:26;;;;;;;9.27;6.00;;;18.20;99.90;;;;;;5032178;28;20206;-60
2022/08/30 08:08:55;;;;;;;8.83;5.83;;;18.40;99.90;;;;;;5032056;28;20290;-61
2022/08/30 08:11:24;;;;;;;9.53;5.63;;;18.50;99.90;;;;;;5031976;28;20206;-61
2022/08/30 08:13:51;;;;;;;12.30;5.80;;;18.60;1.00;;;;;;5031903;28;20772;-58
2022/08/30 08:16:21;;;;;;;7.93;4.80;;;18.70;20.00;;;;;;5031651;28;20222;-59
2022/08/30 08:18:48;;;;;;;7.17;5.20;;;18.80;99.90;;;;;;5033043;28;20206;-60
2022/08/30 08:21:14;;;;;;;7.57;5.53;;;18.90;1.00;;;;;;5032003;28;20210;-60
2022/08/30 08:23:41;;;;;;;6.33;4.83;;;18.90;62.10;;;;;;5032267;28;20280;-60
2022/08/30 08:26:08;;;;;;;9.40;5.23;;;18.80;1.00;;;;;;5032502;28;20731;-60
2022/08/30 08:28:34;;;;;;;8.17;5.10;;;19.00;1.00;;;;;;5031981;28;20272;-59
2022/08/30 08:31:01;;;;;;;6.53;5.13;;;19.10;1.00;;;;;;5031450;28;20210;-59
2022/08/30 08:33:30;;;;;;;6.60;4.77;;;19.00;99.90;;;;;;5031900;28;20230;-56
2022/08/30 08:35:56;;;;;;;9.10;5.17;;;19.10;93.80;;;;;;5031898;28;20279;-57
2022/08/30 08:38:23;;;;;;;13.00;4.67;;;19.20;99.90;;;;;;5031471;28;20252;-58
2022/08/30 08:40:59;;;;;;;14.10;4.47;;;19.40;99.90;;;;;;5031709;28;20278;-55
2022/08/30 08:43:26;;;;;;;6.67;3.87;;;19.60;99.90;;;;;;5031401;28;20279;-59
2022/08/30 08:46:00;;;;;;;9.97;3.80;;;19.70;99.90;;;;;;5031771;28;20210;-61
2022/08/30 08:48:33;;;;;;;5.17;3.83;;;19.90;99.90;;;;;;5031878;28;20206;-61
2022/08/30 08:53:53;;;;;;;8.20;4.27;;;19.70;1.00;;;;;;5031501;28;20225;-61
2022/08/30 08:56:21;;;;;;;7.87;4.23;;;19.90;67.70;;;;;;5031546;28;20273;-61
2022/08/30 08:58:50;;;;;;;6.30;4.17;;;19.90;99.90;;;;;;5031653;28;20225;-59
2022/08/30 09:01:19;;;;;;;8.93;4.70;;;19.80;1.00;;;;;;5031476;28;20700;-60
2022/08/30 09:03:47;;;;;;;7.27;3.90;;;19.80;1.00;;;;;;5031365;28;20222;-57
2022/08/30 09:06:38;;;;;;;5.17;4.13;;;19.90;1.00;;;;;;5031149;28;20590;-56
2022/08/30 09:09:05;;;;;;;4.20;3.80;;;19.70;1.00;;;;;;5031414;28;20206;-58
2022/08/30 09:11:37;;;;;;;6.93;4.60;;;19.60;1.00;;;;;;5031452;28;20210;-58
2022/08/30 09:14:09;;;;;;;8.50;4.77;;;19.60;36.90;;;;;;5032356;28;20226;-58
2022/08/30 09:17:00;;;;;;;6.80;4.13;;;19.70;1.00;;;;;;5032037;28;20252;-57
2022/08/30 09:19:34;;;;;;;6.47;4.70;;;19.80;1.00;;;;;;5032219;28;20206;-58
2022/08/30 09:22:04;;;;;;;8.83;4.43;;;19.90;1.00;;;;;;5031517;28;20210;-61
2022/08/30 09:24:39;;;;;;;6.60;4.50;;;19.90;99.90;;;;;;5031186;28;20272;-55
2022/08/30 09:27:18;;;;;;;14.20;4.47;;;20.00;99.90;;;;;;5030804;28;20209;-59
2022/08/30 09:29:52;;;;;;;7.37;4.30;;;20.20;99.90;;;;;;5031403;28;20237;-62
2022/08/30 09:32:28;;;;;;;4.67;4.07;;;20.30;99.90;;;;;;5031330;28;20206;-61
2022/08/30 09:34:57;;;;;;;5.40;3.20;;;20.50;1.00;;;;;;5031135;28;20261;-61
2022/08/30 09:37:28;;;;;;;7.93;3.47;;;20.60;1.00;;;;;;5030834;28;20277;-61
2022/08/30 09:39:55;;;;;;;4.87;3.57;;;20.80;1.00;;;;;;5031240;28;20210;-60
2022/08/30 09:42:25;;;;;;;6.33;3.67;;;21.10;99.90;;;;;;5031301;28;20280;-61
2022/08/30 09:44:53;;;;;;;8.20;4.40;;;21.00;99.90;;;;;;5034441;28;20655;-61
2022/08/30 09:47:23;;;;;;;5.23;3.77;;;20.90;99.90;;;;;;5034521;28;20199;-57
2022/08/30 09:49:50;;;;;;;8.30;3.77;;;20.90;99.90;;;;;;5034539;28;20202;-61
2022/08/30 09:52:34;;;;;;;7.97;4.53;;;21.00;99.90;;;;;;5034574;28;20597;-61
2022/08/30 09:55:14;;;;;;;4.93;3.43;;;20.90;99.90;;;;;;5034512;28;20253;-59
2022/08/30 09:57:52;;;;;;;9.63;4.20;;;21.00;99.90;;;;;;5034361;28;20222;-61
2022/08/30 10:00:21;;;;;;;7.10;3.83;;;20.90;99.90;;;;;;5034330;28;20238;-58
2022/08/30 10:03:03;;;;;;;4.43;3.10;;;21.10;99.90;;;;;;5034544;28;20264;-60
2022/08/30 10:05:36;;;;;;;13.17;3.97;;;21.20;99.90;;;;;;5034335;28;20202;-61
2022/08/30 10:08:13;;;;;;;6.67;3.27;;;21.20;99.90;;;;;;5034098;28;20735;-61
2022/08/30 10:10:47;;;;;;;5.07;3.37;;;21.40;99.90;;;;;;5033893;28;20700;-62
2022/08/30 10:13:43;;;;;;;5.83;3.37;;;21.50;99.90;;;;;;5034308;28;20234;-60
2022/08/30 10:16:20;;;;;;;4.90;2.83;;;21.70;99.90;;;;;;5034118;28;20565;-59
2022/08/30 10:18:57;;;;;;;5.03;3.00;;;22.00;99.90;;;;;;5034016;28;20206;-61
2022/08/30 10:21:29;;;;;;;4.67;3.17;;;22.10;99.90;;;;;;5034339;28;20198;-61
2022/08/30 10:24:04;;;;;;;8.37;3.37;;;22.00;99.90;;;;;;5034083;28;20226;-61
2022/08/30 10:26:34;;;;;;;6.23;3.40;;;22.10;99.90;;;;;;5034112;28;20202;-59
2022/08/30 10:29:06;;;;;;;5.57;3.00;;;22.10;99.90;;;;;;5033985;28;20257;-61
2022/08/30 10:31:40;;;;;;;4.60;2.80;;;22.40;99.90;;;;;;5034142;28;20558;-62
2022/08/30 10:34:10;;;;;;;5.33;3.23;;;22.60;99.90;;;;;;5034079;28;20234;-61
2022/08/30 10:36:43;;;;;;;5.03;3.43;;;22.70;99.90;;;;;;5033535;28;20218;-62
2022/08/30 10:39:17;;;;;;;10.67;3.33;;;22.70;99.90;;;;;;5033546;28;20210;-58
2022/08/30 10:41:49;;;;;;;5.70;2.90;;;22.70;99.90;;;;;;5033736;28;20206;-57
2022/08/30 10:44:19;;;;;;;5.77;2.87;;;22.80;99.90;;;;;;5033507;28;20284;-59
2022/08/30 10:46:59;;;;;;;5.80;2.87;;;23.00;99.90;;;;;;5033912;28;20206;-60
2022/08/30 10:49:28;;;;;;;6.50;2.97;;;23.10;99.90;;;;;;5033444;28;20210;-60
2022/08/30 10:52:02;;;;;;;4.57;2.47;;;23.20;99.90;;;;;;5033659;28;20210;-60
2022/08/30 10:54:49;;;;;;;7.97;2.73;;;23.20;99.90;;;;;;5032982;28;20230;-61
2022/08/30 10:57:16;;;;;;;5.63;3.03;;;23.10;99.90;;;;;;5033337;28;20272;-60
2022/08/30 10:59:46;;;;;;;3.13;2.47;;;23.10;99.90;;;;;;5033414;28;20207;-61
2022/08/30 11:02:35;;;;;;;4.50;3.07;;;23.10;99.90;;;;;;5033332;28;20210;-60
2022/08/30 11:05:24;;;;;;;4.17;2.70;;;23.00;99.90;;;;;;5032997;28;20368;-60
2022/08/30 11:08:02;;;;;;;4.10;2.43;;;23.00;99.90;;;;;;5033188;28;20616;-61
2022/08/30 11:10:44;;;;;;;7.17;3.03;;;22.90;99.90;;;;;;5033041;28;20271;-60
2022/08/30 11:13:14;;;;;;;3.83;2.60;;;22.90;99.90;;;;;;5033080;28;20300;-60
2022/08/30 11:15:56;;;;;;;4.47;3.10;;;23.00;99.90;;;;;;5033198;28;20265;-60
2022/08/30 11:18:24;;;;;;;4.43;2.63;;;23.10;99.90;;;;;;5033109;28;20222;-60
2022/08/30 11:20:53;;;;;;;7.90;2.87;;;23.10;99.90;;;;;;5032925;28;20563;-60
2022/08/30 11:23:32;;;;;;;5.70;2.73;;;23.10;99.90;;;;;;5032965;28;20237;-60
2022/08/30 11:26:03;;;;;;;5.00;2.87;;;23.00;99.90;;;;;;5032797;28;20268;-59
2022/08/30 11:29:02;;;;;;;6.00;2.87;;;23.00;99.90;;;;;;5033057;28;20210;-57
2022/08/30 11:31:34;;;;;;;3.27;2.50;;;22.60;99.90;;;;;;5032745;28;20214;-60
2022/08/30 11:34:01;;;;;;;4.87;2.50;;;22.50;99.90;;;;;;5032737;28;20733;-60
2022/08/30 11:37:04;;;;;;;4.13;2.77;;;22.70;99.90;;;;;;5032350;28;20410;-60
2022/08/30 11:39:51;;;;;;;4.60;2.27;;;22.90;99.90;;;;;;5032662;28;20676;-60
2022/08/30 11:42:29;;;;;;;5.27;2.50;;;23.00;99.90;;;;;;5032409;28;20206;-60
2022/08/30 11:45:34;;;;;;;4.50;2.40;;;23.30;99.90;;;;;;5032399;28;20660;-58
2022/08/30 11:48:04;;;;;;;11.00;2.90;;;23.60;99.90;;;;;;5032112;28;20214;-60
2022/08/30 11:50:35;;;;;;;4.10;2.70;;;23.50;99.90;;;;;;5032104;28;20210;-60
2022/08/30 11:53:10;;;;;;;3.17;2.60;;;23.30;99.90;;;;;;5031958;28;20210;-60
2022/08/30 11:55:56;;;;;;;4.30;2.80;;;23.50;99.90;;;;;;5032013;28;20664;-61
2022/08/30 11:58:41;;;;;;;4.80;2.47;;;23.50;99.90;;;;;;5031971;28;20708;-60
2022/08/30 12:01:32;;;;;;;3.97;2.17;;;23.60;99.90;;;;;;5032119;28;20210;-61
2022/08/30 12:04:04;;;;;;;4.10;2.67;;;23.90;99.90;;;;;;5032457;28;20231;-60
2022/08/30 12:06:45;;;;;;;3.40;2.37;;;23.80;99.90;;;;;;5031260;28;20255;-59
2022/08/30 12:10:05;;;;;;;2.77;2.23;;;24.00;99.90;;;;;;5032025;28;20630;-60
2022/08/30 12:12:50;;;;;;;4.17;2.80;;;24.10;99.90;;;;;;5032328;28;20589;-60
2022/08/30 12:15:47;;;;;;;2.80;2.20;;;24.20;99.90;;;;;;5031944;28;20267;-60
2022/08/30 12:18:28;;;;;;;5.17;2.57;;;24.10;99.90;;;;;;5031948;28;20226;-60
2022/08/30 12:21:01;;;;;;;7.53;2.87;;;23.90;99.90;;;;;;5031880;28;20604;-61
2022/08/30 12:23:36;;;;;;;5.47;2.63;;;23.50;99.90;;;;;;5031748;28;20283;-60
2022/08/30 12:26:29;;;;;;;6.53;3.97;;;23.50;99.90;;;;;;5031498;28;20233;-61
2022/08/30 12:29:11;;;;;;;4.43;2.73;;;23.50;99.90;;;;;;5030362;28;20208;-58
2022/08/30 12:31:46;;;;;;;6.00;2.60;;;23.50;99.90;;;;;;5016924;28;20222;-59
2022/08/30 12:34:21;;;;;;;6.30;2.60;;;23.60;99.90;;;;;;5031503;28;20276;-59
2022/08/30 12:36:54;;;;;;;5.70;2.10;;;23.60;99.90;;;;;;5030827;28;20217;-55
2022/08/30 12:39:24;;;;;;;6.47;2.57;;;23.80;99.90;;;;;;5031144;28;20592;-60
2022/08/30 12:41:52;;;;;;;4.57;2.70;;;24.00;99.90;;;;;;5030493;28;20202;-59
2022/08/30 12:44:22;;;;;;;6.63;2.40;;;23.90;99.90;;;;;;5031309;28;20249;-64
2022/08/30 12:46:54;;;;;;;6.27;2.90;;;23.80;99.90;;;;;;5031020;28;20764;-63
2022/08/30 12:49:25;;;;;;;3.73;2.70;;;23.90;99.90;;;;;;5031736;28;20191;-61
2022/08/30 12:51:53;;;;;;;4.10;2.00;;;23.80;99.90;;;;;;5031075;28;20874;-61
2022/08/30 12:54:23;;;;;;;3.50;2.27;;;23.80;99.90;;;;;;5031246;28;20288;-62
2022/08/30 12:56:56;;;;;;;4.13;2.97;;;23.90;99.90;;;;;;5031015;28;20515;-62
2022/08/30 12:59:45;;;;;;;6.40;2.80;;;24.10;99.90;;;;;;5031061;28;20633;-62
2022/08/30 13:02:16;;;;;;;6.93;3.27;;;24.40;99.90;;;;;;5031004;28;20739;-62
2022/08/30 13:04:43;;;;;;;4.93;2.67;;;24.60;99.90;;;;;;5031232;28;20229;-62
2022/08/30 13:07:10;;;;;;;3.83;2.47;;;24.60;99.90;;;;;;5031090;28;20214;-63
2022/08/30 13:09:39;;;;;;;3.37;2.77;;;24.40;99.90;;;;;;5030624;28;20591;-61
2022/08/30 13:12:09;;;;;;;3.83;2.70;;;24.30;99.90;;;;;;5031025;28;20202;-60